メインページ
METAR-TAF:

METAR-TAF

空港 :

シャフレ・コルド, イラン

緯度: 32-20N, 経度: 050-51E, 海抜: 2078m

現時点の気象観測

当レポートは1時間3分前の17:00(UTC)に作成
南/南東の風 2kt
気温 10°C
湿度 66%
気圧 1027 hPa
視程10km以上
高度4000ftの雲は散在している

METAR: OIFS 231700Z 15002KT 9999 SCT040 10/04 Q1027

時間: 21:33 (18:03 UTC)


TAF: 見つかりません

4,000以上の空港の気象観測と天気予報(METAR報とTAF報)

利用可能な観測所は地図上に黄色い丸と赤い丸で示す。

丸の上にカーソルを重ねると観測所名を参照できる。

次にクリックすると気象観測と天気予報を参照できる。

マップの切り替え:黒色「×」印の緑ボタンをクリックして拡大、「-」印の緑ボタンをクリックして縮小、緑色の三角印をクリックして隣りの地図に切り替え


METAR-TAF: